Time;durP1;ratioP1;P1;durP2;ratioP2;P2;SDS_P1;SDS_P2;PMS_P1;PMS_P2;Temp;Humidity;BMP_temperature;BMP_pressure;BME280_temperature;BME280_humidity;BME280_pressure;Samples;Min_cycle;Max_cycle;Signal;HPM_P1;HPM_P2
2022/04/21 00:00:08;;;;;;;2.75;1.85;;;8.80;99.90;;;;;;6172969;28;20242;-67
2022/04/21 00:03:21;;;;;;;1.65;1.50;;;8.80;99.90;;;;;;6172979;28;20261;-67
2022/04/21 00:06:27;;;;;;;1.52;1.52;;;8.80;99.90;;;;;;6173233;28;20596;-67
2022/04/21 00:09:32;;;;;;;1.65;1.65;;;8.70;99.90;;;;;;6172631;28;20688;-67
2022/04/21 00:12:39;;;;;;;1.98;1.92;;;8.70;99.90;;;;;;6171572;28;20230;-68
2022/04/21 00:15:45;;;;;;;1.83;1.70;;;8.70;99.90;;;;;;6173395;28;20250;-67
2022/04/21 00:18:51;;;;;;;1.85;1.75;;;8.70;99.90;;;;;;6172360;28;20581;-67
2022/04/21 00:25:19;;;;;;;1.88;1.77;;;8.70;99.90;;;;;;6172262;28;20235;-68
2022/04/21 00:28:28;;;;;;;1.90;1.80;;;8.60;99.90;;;;;;6171860;28;20235;-67
2022/04/21 00:31:33;;;;;;;1.63;1.63;;;8.60;99.90;;;;;;6171160;28;20238;-67
2022/04/21 00:34:39;;;;;;;1.60;1.60;;;8.60;99.90;;;;;;6172050;28;20249;-67
2022/04/21 00:37:46;;;;;;;1.83;1.73;;;8.60;99.90;;;;;;6172504;28;20237;-67
2022/04/21 00:40:51;;;;;;;1.73;1.73;;;8.60;99.90;;;;;;6173457;28;20242;-67
2022/04/21 00:43:58;;;;;;;3.63;1.70;;;8.60;99.90;;;;;;6172224;28;20708;-67
2022/04/21 00:47:06;;;;;;;1.67;1.63;;;8.50;99.90;;;;;;6171753;28;20539;-68
2022/04/21 00:50:16;;;;;;;1.55;1.55;;;8.50;99.90;;;;;;6172980;28;20704;-67
2022/04/21 00:53:21;;;;;;;1.90;1.80;;;8.60;99.90;;;;;;6171045;28;20235;-67
2022/04/21 00:56:27;;;;;;;1.33;1.33;;;8.60;99.90;;;;;;6172846;28;20242;-67
2022/04/21 00:59:34;;;;;;;1.60;1.60;;;8.60;99.90;;;;;;6171581;28;20551;-67
2022/04/21 01:02:49;;;;;;;1.50;1.50;;;8.60;99.90;;;;;;6171950;28;20244;-67
2022/04/21 01:05:55;;;;;;;1.48;1.48;;;8.60;99.90;;;;;;6173021;28;20226;-67
2022/04/21 01:09:00;;;;;;;1.67;1.60;;;8.60;99.90;;;;;;6172278;28;20246;-66
2022/04/21 01:12:09;;;;;;;1.52;1.50;;;8.60;99.90;;;;;;6171941;28;20707;-67
2022/04/21 01:15:16;;;;;;;1.58;1.48;;;8.50;99.90;;;;;;6172840;28;20226;-67
2022/04/21 01:18:28;;;;;;;1.33;1.33;;;8.50;99.90;;;;;;6172543;28;20242;-66
2022/04/21 01:21:35;;;;;;;1.52;1.52;;;8.40;99.90;;;;;;6172794;28;20237;-67
2022/04/21 01:24:40;;;;;;;1.75;1.48;;;8.50;99.90;;;;;;6172768;28;20708;-68
2022/04/21 01:27:47;;;;;;;1.38;1.38;;;8.50;99.90;;;;;;6173043;28;20231;-68
2022/04/21 01:30:55;;;;;;;1.80;1.70;;;8.60;99.90;;;;;;6172920;28;20577;-68
2022/04/21 01:34:02;;;;;;;1.50;1.50;;;8.60;99.90;;;;;;6172532;28;20233;-67
2022/04/21 01:43:55;;;;;;;1.50;1.50;;;8.50;99.90;;;;;;6175607;28;20235;-67
2022/04/21 01:47:00;;;;;;;1.33;1.33;;;8.60;99.90;;;;;;6160759;28;20653;-66
2022/04/21 01:50:07;;;;;;;1.60;1.52;;;8.50;99.90;;;;;;6177321;28;20705;-67
2022/04/21 01:53:14;;;;;;;1.58;1.50;;;8.50;99.90;;;;;;6178369;28;20234;-69
2022/04/21 01:56:20;;;;;;;1.42;1.42;;;8.40;99.90;;;;;;6178656;28;20804;-67
2022/04/21 01:59:25;;;;;;;1.75;1.67;;;8.40;99.90;;;;;;6190998;28;20234;-65
2022/04/21 02:02:32;;;;;;;1.65;1.65;;;8.50;99.90;;;;;;6177076;28;20233;-66
2022/04/21 02:05:38;;;;;;;1.70;1.70;;;8.40;99.90;;;;;;6186338;28;20252;-68
2022/04/21 02:08:46;;;;;;;1.42;1.40;;;8.40;99.90;;;;;;6176375;28;20344;-66
2022/04/21 02:11:52;;;;;;;1.60;1.60;;;8.40;99.90;;;;;;6175820;28;20235;-66
2022/04/21 02:15:01;;;;;;;1.50;1.50;;;8.40;99.90;;;;;;6175440;28;20716;-66
2022/04/21 02:18:07;;;;;;;1.50;1.50;;;8.40;99.90;;;;;;6175022;28;20231;-66
2022/04/21 02:21:12;;;;;;;1.40;1.40;;;8.40;99.90;;;;;;6176146;28;20233;-67
2022/04/21 02:24:19;;;;;;;1.75;1.50;;;8.30;99.90;;;;;;6164722;28;20230;-66
2022/04/21 02:27:24;;;;;;;2.40;1.60;;;8.30;99.90;;;;;;6174972;28;20227;-66
2022/04/21 02:30:30;;;;;;;1.70;1.70;;;8.20;99.90;;;;;;6176049;28;20241;-68
2022/04/21 02:33:35;;;;;;;1.58;1.58;;;8.30;99.90;;;;;;6158100;28;20712;-67
2022/04/21 02:36:42;;;;;;;1.65;1.60;;;8.30;99.90;;;;;;6175809;28;20325;-66
2022/04/21 02:39:49;;;;;;;1.45;1.45;;;8.30;99.90;;;;;;6174960;28;20236;-67
2022/04/21 02:42:55;;;;;;;2.03;1.88;;;8.20;99.90;;;;;;6174557;28;20237;-69
2022/04/21 02:46:01;;;;;;;1.52;1.52;;;8.30;99.90;;;;;;6175024;28;20238;-66
2022/04/21 02:49:06;;;;;;;1.80;1.80;;;8.30;99.90;;;;;;6174559;28;20230;-67
2022/04/21 02:52:13;;;;;;;1.45;1.45;;;8.20;99.90;;;;;;6174875;28;20609;-67
2022/04/21 02:58:43;;;;;;;1.42;1.42;;;8.10;99.90;;;;;;6174633;28;20708;-68
2022/04/21 03:01:49;;;;;;;1.52;1.45;;;8.10;99.90;;;;;;6174533;28;20233;-66
2022/04/21 03:04:55;;;;;;;1.60;1.50;;;8.10;99.90;;;;;;6174164;28;20234;-66
2022/04/21 03:08:00;;;;;;;1.48;1.48;;;8.00;99.90;;;;;;6175371;28;20249;-67
2022/04/21 03:11:07;;;;;;;1.73;1.70;;;8.00;99.90;;;;;;6174728;28;20223;-67
2022/04/21 03:14:15;;;;;;;2.17;1.60;;;8.10;99.90;;;;;;6174446;28;20260;-67
2022/04/21 03:17:20;;;;;;;1.60;1.50;;;8.10;99.90;;;;;;6174345;28;20234;-68
2022/04/21 03:27:11;;;;;;;1.70;1.63;;;8.10;99.90;;;;;;6173624;28;20237;-68
2022/04/21 03:30:16;;;;;;;1.50;1.50;;;8.00;99.90;;;;;;6173688;28;20222;-66
2022/04/21 03:33:22;;;;;;;1.50;1.50;;;8.10;99.90;;;;;;6173862;28;20235;-67
2022/04/21 03:36:27;;;;;;;2.45;1.80;;;8.10;99.90;;;;;;6174386;28;20230;-66
2022/04/21 03:39:32;;;;;;;1.65;1.65;;;8.10;99.90;;;;;;6173479;28;20235;-68
2022/04/21 03:42:40;;;;;;;1.85;1.70;;;8.00;99.90;;;;;;6173281;28;20241;-68
2022/04/21 03:45:45;;;;;;;1.70;1.70;;;8.00;99.90;;;;;;6173651;28;20233;-66
2022/04/21 03:48:51;;;;;;;1.60;1.60;;;8.00;99.90;;;;;;6172994;28;20338;-68
2022/04/21 03:51:57;;;;;;;1.60;1.60;;;8.10;99.90;;;;;;6172915;28;20682;-67
2022/04/21 03:55:02;;;;;;;1.65;1.65;;;8.10;99.90;;;;;;6173343;28;20250;-66
2022/04/21 03:58:08;;;;;;;1.70;1.60;;;8.10;99.90;;;;;;6172454;28;20245;-66
2022/04/21 04:01:14;;;;;;;2.22;1.80;;;8.10;99.90;;;;;;6173499;28;20303;-65
2022/04/21 04:04:19;;;;;;;4.20;1.83;;;8.20;99.90;;;;;;6172474;28;20653;-68
2022/04/21 04:10:56;;;;;;;1.98;1.85;;;8.20;99.90;;;;;;6142002;28;20233;-68
2022/04/21 04:14:05;;;;;;;1.80;1.70;;;8.10;99.90;;;;;;6172259;28;20230;-67
2022/04/21 04:17:14;;;;;;;3.28;2.00;;;8.20;99.90;;;;;;6175240;28;20229;-68
2022/04/21 04:20:20;;;;;;;1.98;1.70;;;8.10;99.90;;;;;;6173833;28;20729;-66
2022/04/21 04:23:25;;;;;;;1.80;1.70;;;8.10;99.90;;;;;;6172681;28;20238;-67
2022/04/21 04:26:31;;;;;;;1.77;1.60;;;8.20;99.90;;;;;;6173427;28;20234;-67
2022/04/21 04:29:38;;;;;;;2.17;1.85;;;8.20;99.90;;;;;;6172564;28;20241;-67
2022/04/21 04:32:43;;;;;;;1.60;1.58;;;8.30;99.90;;;;;;6172425;28;20242;-69
2022/04/21 04:35:49;;;;;;;1.90;1.80;;;8.30;99.90;;;;;;6172535;28;20234;-67
2022/04/21 04:38:54;;;;;;;2.03;1.92;;;8.30;99.90;;;;;;6172605;28;20242;-66
2022/04/21 04:42:18;;;;;;;1.70;1.70;;;8.40;99.90;;;;;;6172534;28;20608;-67
2022/04/21 04:48:47;;;;;;;3.03;1.60;;;8.40;99.90;;;;;;6172492;28;20692;-66
2022/04/21 04:51:53;;;;;;;1.92;1.85;;;8.50;99.90;;;;;;6172533;28;20238;-64
2022/04/21 04:54:58;;;;;;;2.53;1.40;;;8.50;99.90;;;;;;6171668;28;20226;-67
2022/04/21 04:58:04;;;;;;;1.63;1.63;;;8.50;99.90;;;;;;6172188;28;20249;-67
2022/04/21 05:01:10;;;;;;;2.00;1.95;;;8.50;99.90;;;;;;6172656;28;20596;-68
2022/04/21 05:04:18;;;;;;;1.63;1.60;;;8.60;99.90;;;;;;6171806;28;20238;-68
2022/04/21 05:07:23;;;;;;;2.03;1.85;;;8.60;99.90;;;;;;6172380;28;20697;-67
2022/04/21 05:10:28;;;;;;;1.40;1.40;;;8.70;99.90;;;;;;6172632;28;20234;-68
2022/04/21 05:13:34;;;;;;;1.80;1.80;;;8.60;99.90;;;;;;6172006;28;20238;-67
2022/04/21 05:16:46;;;;;;;2.28;1.92;;;8.70;99.90;;;;;;6172848;28;20241;-67
2022/04/21 05:19:53;;;;;;;1.50;1.50;;;8.80;99.90;;;;;;6176348;28;20230;-68
2022/04/21 05:23:05;;;;;;;1.85;1.67;;;8.80;99.90;;;;;;6176340;28;20598;-67
2022/04/21 05:26:14;;;;;;;2.50;1.77;;;8.80;99.90;;;;;;6177334;28;20258;-67
2022/04/21 05:32:47;;;;;;;1.67;1.48;;;8.90;99.90;;;;;;6158997;28;20231;-66
2022/04/21 05:35:53;;;;;;;1.73;1.65;;;9.00;99.90;;;;;;6176771;28;20242;-67
2022/04/21 05:38:59;;;;;;;4.15;1.70;;;9.00;99.90;;;;;;6176094;28;20519;-68
2022/04/21 05:42:09;;;;;;;1.58;1.58;;;9.10;99.90;;;;;;6176480;28;20231;-67
2022/04/21 05:45:17;;;;;;;1.42;1.42;;;9.10;99.90;;;;;;6177893;28;20416;-68
2022/04/21 05:48:25;;;;;;;1.80;1.70;;;9.20;99.90;;;;;;6180804;28;20275;-68
2022/04/21 05:51:36;;;;;;;1.70;1.58;;;9.30;99.90;;;;;;6181222;28;20235;-67
2022/04/21 05:54:42;;;;;;;2.38;1.75;;;9.30;99.90;;;;;;6179890;28;20243;-67
2022/04/21 05:57:48;;;;;;;1.65;1.65;;;9.40;99.90;;;;;;6177848;28;20249;-68
2022/04/21 06:00:53;;;;;;;3.22;1.40;;;9.40;99.90;;;;;;6176644;28;20253;-68
2022/04/21 06:04:05;;;;;;;1.33;1.33;;;9.50;99.90;;;;;;6175000;28;20603;-68
2022/04/21 06:07:11;;;;;;;1.50;1.50;;;9.50;99.90;;;;;;6175566;28;20668;-68
2022/04/21 06:10:17;;;;;;;1.40;1.40;;;9.60;99.90;;;;;;6176362;28;20237;-69
2022/04/21 06:13:23;;;;;;;1.60;1.60;;;9.70;99.90;;;;;;6175296;28;20750;-69
2022/04/21 06:16:28;;;;;;;1.30;1.30;;;9.70;99.90;;;;;;6175873;28;20230;-68
2022/04/21 06:19:35;;;;;;;1.70;1.60;;;9.80;99.90;;;;;;6164282;28;20260;-68
2022/04/21 06:22:41;;;;;;;1.63;1.55;;;9.90;99.90;;;;;;6175278;28;20238;-67
2022/04/21 06:25:47;;;;;;;1.73;1.63;;;10.00;99.90;;;;;;6175830;28;20722;-68
2022/04/21 06:28:54;;;;;;;1.40;1.40;;;10.10;99.90;;;;;;6147850;28;20238;-67
2022/04/21 06:31:59;;;;;;;1.40;1.40;;;10.30;99.90;;;;;;6175093;28;20238;-68
2022/04/21 06:35:08;;;;;;;6.65;1.70;;;10.40;99.90;;;;;;6175873;28;20239;-67
2022/04/21 06:38:14;;;;;;;1.50;1.50;;;10.50;99.90;;;;;;6175563;28;20234;-67
2022/04/21 06:41:19;;;;;;;5.25;1.50;;;10.50;99.90;;;;;;6175891;28;20249;-68
2022/04/21 06:48:05;;;;;;;1.95;1.60;;;11.00;99.90;;;;;;6175396;28;20234;-67
2022/04/21 06:51:15;;;;;;;1.42;1.42;;;11.20;99.90;;;;;;6175359;28;20222;-67
2022/04/21 06:54:20;;;;;;;1.63;1.60;;;11.30;99.90;;;;;;6176674;28;20238;-68
2022/04/21 06:57:25;;;;;;;1.73;1.65;;;11.30;99.70;;;;;;6176298;28;20238;-68
2022/04/21 07:00:31;;;;;;;3.40;1.75;;;11.30;99.60;;;;;;6176697;28;20685;-67
2022/04/21 07:03:36;;;;;;;1.70;1.70;;;11.20;99.50;;;;;;6176320;28;20265;-68
2022/04/21 07:06:43;;;;;;;1.63;1.50;;;11.20;99.70;;;;;;6178153;28;20701;-67
2022/04/21 07:09:48;;;;;;;1.23;1.23;;;11.20;99.60;;;;;;6188942;28;20237;-65
2022/04/21 07:12:54;;;;;;;3.08;1.65;;;11.20;99.80;;;;;;6182654;28;20255;-69
2022/04/21 07:15:59;;;;;;;1.63;1.50;;;11.20;99.60;;;;;;6189554;28;20245;-67
2022/04/21 07:19:04;;;;;;;1.40;1.40;;;11.30;99.40;;;;;;6175392;28;20237;-68
2022/04/21 07:22:12;;;;;;;1.50;1.48;;;11.30;99.30;;;;;;6174301;28;20253;-69
2022/04/21 07:25:18;;;;;;;1.45;1.40;;;11.30;99.50;;;;;;6174508;28;20716;-68
2022/04/21 07:28:23;;;;;;;1.52;1.50;;;11.30;99.40;;;;;;6173929;28;20724;-67
2022/04/21 07:31:29;;;;;;;1.63;1.60;;;11.20;99.20;;;;;;6174134;28;20237;-68
2022/04/21 07:34:36;;;;;;;1.45;1.45;;;11.30;99.40;;;;;;6173958;28;20603;-67
2022/04/21 07:37:44;;;;;;;1.60;1.60;;;11.30;99.40;;;;;;6173726;28;20235;-67
2022/04/21 07:40:53;;;;;;;1.58;1.40;;;11.40;99.20;;;;;;6164708;28;20237;-68
2022/04/21 07:44:00;;;;;;;1.60;1.50;;;11.30;99.60;;;;;;6164768;28;20257;-67
2022/04/21 07:47:08;;;;;;;1.48;1.40;;;11.30;99.30;;;;;;6174050;28;20716;-69
2022/04/21 07:50:13;;;;;;;2.55;1.25;;;11.20;99.50;;;;;;6173973;28;20249;-67
2022/04/21 07:53:40;;;;;;;1.40;1.40;;;11.30;99.40;;;;;;6171853;28;20235;-68
2022/04/21 07:56:45;;;;;;;1.60;1.50;;;11.20;99.20;;;;;;6173924;28;20260;-67
2022/04/21 07:59:51;;;;;;;3.92;1.90;;;11.30;99.20;;;;;;6173614;28;20238;-67
2022/04/21 08:02:56;;;;;;;1.58;1.58;;;11.30;99.10;;;;;;6173831;28;20230;-68
2022/04/21 08:06:02;;;;;;;2.63;1.50;;;11.30;99.20;;;;;;6173737;28;20230;-69
2022/04/21 08:09:09;;;;;;;4.72;1.80;;;11.30;99.10;;;;;;6173282;28;20234;-67
2022/04/21 08:12:14;;;;;;;2.03;1.67;;;11.30;99.20;;;;;;6174144;28;20230;-67
2022/04/21 08:15:25;;;;;;;3.97;1.60;;;11.30;99.20;;;;;;6175115;28;20235;-68
2022/04/21 08:18:30;;;;;;;2.30;1.50;;;11.20;99.50;;;;;;6172941;28;20234;-69
2022/04/21 08:21:36;;;;;;;1.40;1.40;;;11.20;99.30;;;;;;6173365;28;20238;-67
2022/04/21 08:35:44;;;;;;;1.50;1.50;;;11.10;99.30;;;;;;6173418;28;20238;-67
2022/04/21 08:38:49;;;;;;;2.88;1.65;;;11.10;99.00;;;;;;6172682;28;20270;-69
2022/04/21 08:42:04;;;;;;;4.28;1.70;;;11.10;98.40;;;;;;6173435;28;20237;-68
2022/04/21 08:45:12;;;;;;;1.33;1.33;;;11.10;98.30;;;;;;6173303;28;20240;-69
2022/04/21 08:48:22;;;;;;;2.70;1.80;;;11.20;98.20;;;;;;6172615;28;20242;-68
2022/04/21 08:51:29;;;;;;;4.30;1.80;;;11.10;98.70;;;;;;6173722;28;20265;-68
2022/04/21 08:54:35;;;;;;;2.55;1.45;;;11.10;98.40;;;;;;6172316;28;20230;-68
2022/04/21 08:57:43;;;;;;;1.70;1.70;;;11.10;98.50;;;;;;6172994;28;20245;-67
2022/04/21 09:00:51;;;;;;;3.63;1.45;;;10.90;98.50;;;;;;6173066;28;20248;-66
2022/04/21 09:03:56;;;;;;;1.80;1.70;;;10.80;98.50;;;;;;6172550;28;20234;-68
2022/04/21 09:07:20;;;;;;;5.53;1.80;;;10.80;98.60;;;;;;6172806;28;20241;-69
2022/04/21 09:10:27;;;;;;;5.65;1.80;;;10.90;98.60;;;;;;6172769;28;20570;-67
2022/04/21 09:13:36;;;;;;;2.15;1.77;;;10.90;98.40;;;;;;6172192;28;20250;-67
2022/04/21 09:16:42;;;;;;;2.53;1.77;;;10.80;98.70;;;;;;6172800;28;20238;-68
2022/04/21 09:19:57;;;;;;;1.70;1.70;;;10.90;98.50;;;;;;6172122;28;20234;-68
2022/04/21 09:23:06;;;;;;;2.28;1.90;;;10.90;98.30;;;;;;6171875;28;20237;-69
2022/04/21 09:26:14;;;;;;;2.00;2.00;;;10.90;98.20;;;;;;6172882;28;20234;-67
2022/04/21 09:29:28;;;;;;;2.00;1.90;;;11.00;98.40;;;;;;6171629;28;20234;-67
2022/04/21 09:32:34;;;;;;;2.00;1.90;;;11.00;97.90;;;;;;6171971;28;20241;-67
2022/04/21 09:35:40;;;;;;;2.00;1.90;;;11.00;98.10;;;;;;6172620;28;20238;-67
2022/04/21 09:38:58;;;;;;;8.13;2.00;;;11.00;98.00;;;;;;6171702;28;20251;-68
2022/04/21 09:42:04;;;;;;;5.00;1.90;;;11.00;97.80;;;;;;6172029;28;20254;-68
2022/04/21 09:48:35;;;;;;;4.15;2.00;;;11.10;97.60;;;;;;6171571;28;20238;-67
2022/04/21 09:51:41;;;;;;;1.77;1.77;;;11.10;97.70;;;;;;6172317;28;20247;-67
2022/04/21 09:54:46;;;;;;;1.90;1.83;;;11.10;97.70;;;;;;6171822;28;20231;-68
2022/04/21 09:57:53;;;;;;;1.83;1.83;;;11.10;97.20;;;;;;6171952;28;20238;-67
2022/04/21 10:00:59;;;;;;;1.80;1.77;;;11.10;97.30;;;;;;6172152;28;20235;-69
2022/04/21 10:04:06;;;;;;;2.00;1.90;;;11.10;97.10;;;;;;6171118;28;20270;-68
2022/04/21 10:07:12;;;;;;;1.90;1.90;;;11.00;97.30;;;;;;6176549;28;20233;-67
2022/04/21 10:10:18;;;;;;;1.90;1.90;;;11.10;97.20;;;;;;6177317;28;20234;-67
2022/04/21 10:13:24;;;;;;;1.65;1.63;;;11.20;97.20;;;;;;6168105;28;20227;-67
2022/04/21 10:16:31;;;;;;;1.63;1.58;;;11.20;97.00;;;;;;6177577;28;20234;-68
2022/04/21 10:19:36;;;;;;;1.60;1.60;;;11.10;97.10;;;;;;6176348;28;20234;-67
2022/04/21 10:22:43;;;;;;;2.38;1.73;;;11.10;97.10;;;;;;6175443;28;20720;-67
2022/04/21 10:26:00;;;;;;;1.70;1.60;;;11.20;97.00;;;;;;6176170;28;20239;-67
2022/04/21 10:29:27;;;;;;;1.95;1.85;;;11.30;96.90;;;;;;6175052;28;20249;-68
2022/04/21 10:32:58;;;;;;;1.90;1.90;;;11.30;96.80;;;;;;6175705;28;20712;-67
2022/04/21 10:36:03;;;;;;;1.55;1.48;;;11.40;97.00;;;;;;6175369;28;20222;-67
2022/04/21 10:39:26;;;;;;;1.63;1.60;;;11.40;96.60;;;;;;6175068;28;20602;-68
2022/04/21 10:43:03;;;;;;;3.45;1.80;;;11.40;96.20;;;;;;6175294;28;20601;-68
2022/04/21 10:46:20;;;;;;;3.90;1.60;;;11.40;96.20;;;;;;6175092;28;20239;-67
2022/04/21 10:49:57;;;;;;;1.63;1.63;;;11.40;96.30;;;;;;6174358;28;20242;-68
2022/04/21 11:00:08;;;;;;;2.10;2.00;;;11.60;95.70;;;;;;6177332;28;20239;-68
2022/04/21 11:03:27;;;;;;;1.75;1.65;;;11.70;95.70;;;;;;6177379;28;20744;-66
2022/04/21 11:06:41;;;;;;;1.77;1.67;;;11.70;95.50;;;;;;6178129;28;20235;-68
2022/04/21 11:09:50;;;;;;;1.85;1.70;;;11.70;95.30;;;;;;6178251;28;20237;-68
2022/04/21 11:13:19;;;;;;;1.38;1.38;;;11.70;95.30;;;;;;6177405;28;20222;-67
2022/04/21 11:16:48;;;;;;;1.80;1.80;;;11.70;95.10;;;;;;6176621;28;20233;-68
2022/04/21 11:19:54;;;;;;;1.98;1.98;;;11.80;94.80;;;;;;6174278;28;20234;-68
2022/04/21 11:23:01;;;;;;;1.88;1.73;;;11.90;94.60;;;;;;6173959;28;20239;-69
2022/04/21 11:26:08;;;;;;;1.85;1.80;;;11.90;94.50;;;;;;6174747;28;20238;-68
2022/04/21 11:29:13;;;;;;;1.98;1.83;;;12.00;94.20;;;;;;6174355;28;20236;-68
2022/04/21 11:32:20;;;;;;;3.85;2.10;;;12.00;94.20;;;;;;6174036;28;20704;-67
2022/04/21 11:35:25;;;;;;;2.10;2.00;;;12.10;93.80;;;;;;6173058;28;20246;-68
2022/04/21 11:38:32;;;;;;;1.95;1.83;;;12.20;93.40;;;;;;6173676;28;20626;-68
2022/04/21 11:41:44;;;;;;;2.83;1.83;;;12.10;93.50;;;;;;6174320;28;20230;-68
2022/04/21 11:44:49;;;;;;;1.70;1.70;;;12.10;93.40;;;;;;6174100;28;20727;-68
2022/04/21 11:47:58;;;;;;;1.60;1.60;;;12.20;93.10;;;;;;6172163;28;20243;-68
2022/04/21 11:51:03;;;;;;;3.33;2.22;;;12.20;92.80;;;;;;6175105;28;20250;-67
2022/04/21 11:54:12;;;;;;;1.88;1.80;;;12.20;92.70;;;;;;6173063;28;20228;-68
2022/04/21 11:57:17;;;;;;;3.90;1.85;;;12.20;92.50;;;;;;6173847;28;20231;-68
2022/04/21 12:07:17;;;;;;;2.50;1.92;;;12.30;91.80;;;;;;6173282;28;20237;-67
2022/04/21 12:10:24;;;;;;;1.90;1.80;;;12.30;91.80;;;;;;6174162;28;20238;-67
2022/04/21 12:13:30;;;;;;;1.42;1.42;;;12.30;91.70;;;;;;6172793;28;20689;-69
2022/04/21 12:16:44;;;;;;;1.80;1.80;;;12.30;91.90;;;;;;6155917;28;20244;-67
2022/04/21 12:19:50;;;;;;;4.78;2.10;;;12.50;91.30;;;;;;6173779;28;20235;-69
2022/04/21 12:22:56;;;;;;;1.65;1.65;;;12.50;91.50;;;;;;6174241;28;20242;-68
2022/04/21 12:26:03;;;;;;;1.80;1.70;;;12.60;91.50;;;;;;6174006;28;20249;-67
2022/04/21 12:29:09;;;;;;;1.75;1.65;;;12.70;90.90;;;;;;6177046;28;20241;-68
2022/04/21 12:32:18;;;;;;;10.70;1.92;;;12.70;90.80;;;;;;6178848;28;20234;-68
2022/04/21 12:35:44;;;;;;;5.28;1.58;;;12.90;89.90;;;;;;6183962;28;20226;-68
2022/04/21 12:38:56;;;;;;;1.60;1.60;;;13.00;88.40;;;;;;6185345;28;20230;-68
2022/04/21 12:42:23;;;;;;;2.60;1.50;;;13.00;87.60;;;;;;6185431;28;20237;-68
2022/04/21 12:45:29;;;;;;;5.35;1.70;;;13.00;87.00;;;;;;6174797;28;20226;-71
2022/04/21 12:48:34;;;;;;;1.45;1.45;;;13.00;86.90;;;;;;6173346;28;20244;-67
2022/04/21 12:51:48;;;;;;;1.83;1.60;;;13.10;87.20;;;;;;6173637;28;20230;-67
2022/04/21 12:54:54;;;;;;;1.85;1.73;;;13.10;86.20;;;;;;6173296;28;20241;-68
2022/04/21 12:58:05;;;;;;;1.83;1.70;;;13.10;85.40;;;;;;6172494;28;20230;-69
2022/04/21 13:01:12;;;;;;;1.48;1.45;;;13.20;85.10;;;;;;6173300;28;20253;-68
2022/04/21 13:04:17;;;;;;;2.20;1.42;;;13.20;84.60;;;;;;6171894;28;20226;-68
2022/04/21 13:07:23;;;;;;;1.45;1.40;;;13.20;85.10;;;;;;6172119;28;20561;-68
2022/04/21 13:10:28;;;;;;;4.88;1.67;;;13.30;84.00;;;;;;6173112;28;20253;-69
2022/04/21 13:13:36;;;;;;;1.83;1.38;;;13.30;83.70;;;;;;6172919;28;20237;-66
2022/04/21 13:16:41;;;;;;;1.50;1.50;;;13.30;82.80;;;;;;6172947;28;20243;-67
2022/04/21 13:19:46;;;;;;;1.63;1.52;;;13.30;82.20;;;;;;6172258;28;20238;-69
2022/04/21 13:22:52;;;;;;;1.50;1.40;;;13.30;81.30;;;;;;6172614;28;20702;-68
2022/04/21 13:25:57;;;;;;;1.65;1.65;;;13.30;81.70;;;;;;6172652;28;20237;-68
2022/04/21 13:29:24;;;;;;;1.70;1.50;;;13.30;81.60;;;;;;6171916;28;20238;-67
2022/04/21 13:35:54;;;;;;;1.33;1.20;;;13.50;82.10;;;;;;6172651;28;20235;-68
2022/04/21 13:38:59;;;;;;;1.65;1.40;;;13.60;80.00;;;;;;6173639;28;20234;-67
2022/04/21 13:42:06;;;;;;;1.52;1.42;;;13.50;79.70;;;;;;6176459;28;20230;-66
2022/04/21 13:45:13;;;;;;;2.50;1.48;;;13.50;79.70;;;;;;6177272;28;20230;-66
2022/04/21 13:48:31;;;;;;;2.33;1.50;;;13.50;78.90;;;;;;6176887;28;20230;-68
2022/04/21 13:51:37;;;;;;;4.32;1.60;;;13.50;78.60;;;;;;6175289;28;20314;-69
2022/04/21 13:54:43;;;;;;;3.58;1.50;;;13.50;79.30;;;;;;6174963;28;20701;-68
2022/04/21 13:57:48;;;;;;;1.30;1.30;;;13.60;78.30;;;;;;6176129;28;20260;-67
2022/04/21 14:00:55;;;;;;;1.52;1.42;;;13.60;78.70;;;;;;6176901;28;20235;-68
2022/04/21 14:04:00;;;;;;;1.50;1.50;;;13.60;77.90;;;;;;6176713;28;20234;-68
2022/04/21 14:07:06;;;;;;;1.27;1.27;;;13.60;76.60;;;;;;6176076;28;20285;-69
2022/04/21 14:10:12;;;;;;;1.30;1.30;;;13.50;76.80;;;;;;6177124;28;20237;-68
2022/04/21 14:13:18;;;;;;;1.75;1.50;;;13.60;76.80;;;;;;6175587;28;20233;-68
2022/04/21 14:16:25;;;;;;;1.83;1.40;;;13.70;77.90;;;;;;6176662;28;20234;-67
2022/04/21 14:19:38;;;;;;;7.15;1.67;;;13.70;77.30;;;;;;6176544;28;20245;-68
2022/04/21 14:22:43;;;;;;;1.38;1.27;;;13.70;75.40;;;;;;6175677;28;20246;-68
2022/04/21 14:25:49;;;;;;;1.27;1.27;;;13.80;76.00;;;;;;6176325;28;20342;-68
2022/04/21 14:28:54;;;;;;;1.40;1.40;;;13.80;75.60;;;;;;6175977;28;20561;-68
2022/04/21 14:32:01;;;;;;;2.95;1.30;;;13.80;74.50;;;;;;6175575;28;20234;-68
2022/04/21 14:35:07;;;;;;;1.30;1.30;;;13.90;73.70;;;;;;6175973;28;20234;-68
2022/04/21 14:45:02;;;;;;;1.38;1.30;;;13.90;73.10;;;;;;6175502;28;20230;-68
2022/04/21 14:48:09;;;;;;;2.58;1.17;;;13.90;73.10;;;;;;6157804;28;20243;-66
2022/04/21 14:51:14;;;;;;;1.30;1.30;;;13.90;73.20;;;;;;6174552;28;20226;-67
2022/04/21 14:54:20;;;;;;;2.95;1.80;;;13.90;73.80;;;;;;6174755;28;20246;-67
2022/04/21 14:57:25;;;;;;;1.35;1.30;;;13.90;73.80;;;;;;6175345;28;20234;-66
2022/04/21 15:00:30;;;;;;;4.03;1.50;;;13.90;74.00;;;;;;6174647;28;20553;-67
2022/04/21 15:03:39;;;;;;;3.83;1.30;;;13.90;73.60;;;;;;6174398;28;20293;-68
2022/04/21 15:06:48;;;;;;;5.13;1.42;;;13.80;73.90;;;;;;6175447;28;20242;-68
2022/04/21 15:09:53;;;;;;;3.78;1.50;;;13.80;75.10;;;;;;6174232;28;20226;-68
2022/04/21 15:12:59;;;;;;;4.38;1.23;;;13.80;73.40;;;;;;6174613;28;20222;-68
2022/04/21 15:16:05;;;;;;;3.45;1.40;;;13.80;73.00;;;;;;6175222;28;20242;-67
2022/04/21 15:19:12;;;;;;;1.55;1.55;;;13.80;73.90;;;;;;6174693;28;20230;-66
2022/04/21 15:22:22;;;;;;;2.88;1.33;;;13.80;73.30;;;;;;6174088;28;20678;-68
2022/04/21 15:25:28;;;;;;;1.88;1.50;;;13.90;73.50;;;;;;6173331;28;20258;-69
2022/04/21 15:28:34;;;;;;;4.38;1.73;;;13.80;72.70;;;;;;6174280;28;20242;-67
2022/04/21 15:31:39;;;;;;;9.18;1.70;;;13.80;73.00;;;;;;6174645;28;20700;-66
2022/04/21 15:34:46;;;;;;;2.53;1.42;;;13.80;72.90;;;;;;6174022;28;20253;-66
2022/04/21 15:37:51;;;;;;;1.67;1.58;;;13.70;73.60;;;;;;6173657;28;20243;-67
2022/04/21 15:40:57;;;;;;;1.42;1.42;;;13.80;72.80;;;;;;6174489;28;20604;-66
2022/04/21 15:44:03;;;;;;;2.78;1.60;;;13.80;73.50;;;;;;6174023;28;20235;-69
2022/04/21 15:47:08;;;;;;;6.13;1.77;;;13.80;73.10;;;;;;6172848;28;20241;-66
2022/04/21 15:50:15;;;;;;;1.55;1.45;;;13.80;73.10;;;;;;6174175;28;20265;-68
2022/04/21 16:00:08;;;;;;;4.47;1.40;;;13.70;72.90;;;;;;6173499;28;20241;-69
2022/04/21 16:03:19;;;;;;;1.60;1.50;;;13.70;73.80;;;;;;6173717;28;20600;-68
2022/04/21 16:06:27;;;;;;;1.63;1.50;;;13.70;73.60;;;;;;6173802;28;20230;-69
2022/04/21 16:09:32;;;;;;;7.10;1.50;;;13.60;74.50;;;;;;6173354;28;20226;-67
2022/04/21 16:12:38;;;;;;;2.33;1.58;;;13.50;74.60;;;;;;6173708;28;20646;-68
2022/04/21 16:15:43;;;;;;;1.95;1.40;;;13.40;74.80;;;;;;6176012;28;20249;-68
2022/04/21 16:18:51;;;;;;;3.13;1.40;;;13.50;74.90;;;;;;6176046;28;20249;-68
2022/04/21 16:21:57;;;;;;;1.75;1.58;;;13.40;74.90;;;;;;6175306;28;20226;-68
2022/04/21 16:25:04;;;;;;;1.88;1.40;;;13.40;75.20;;;;;;6176543;28;20232;-68
2022/04/21 16:28:11;;;;;;;1.23;1.23;;;13.50;75.10;;;;;;6173267;28;20226;-68
2022/04/21 16:31:18;;;;;;;2.47;1.60;;;13.40;75.80;;;;;;6173520;28;20237;-68
2022/04/21 16:34:24;;;;;;;1.42;1.42;;;13.40;76.00;;;;;;6155732;28;20222;-67
2022/04/21 16:37:32;;;;;;;1.30;1.30;;;13.30;76.30;;;;;;6172695;28;20241;-68
2022/04/21 16:40:39;;;;;;;1.80;1.30;;;13.30;76.50;;;;;;6173356;28;20242;-69
2022/04/21 16:43:45;;;;;;;1.38;1.38;;;13.30;76.90;;;;;;6172556;28;20705;-66
2022/04/21 16:46:50;;;;;;;1.58;1.48;;;13.30;77.10;;;;;;6173343;28;20237;-69
2022/04/21 16:49:56;;;;;;;6.38;1.70;;;13.30;76.80;;;;;;6173321;28;20249;-69
2022/04/21 16:53:05;;;;;;;1.60;1.50;;;13.30;77.00;;;;;;6170990;28;20245;-69
2022/04/21 16:56:11;;;;;;;1.65;1.52;;;13.20;77.30;;;;;;6172424;28;20222;-68
2022/04/21 16:59:17;;;;;;;1.52;1.52;;;13.10;78.20;;;;;;6172285;28;20238;-67
2022/04/21 17:05:44;;;;;;;1.60;1.60;;;13.20;78.10;;;;;;6174647;28;20719;-69
2022/04/21 17:08:51;;;;;;;1.48;1.48;;;13.00;79.50;;;;;;6173668;28;20230;-70
2022/04/21 17:11:56;;;;;;;3.03;2.17;;;12.90;79.80;;;;;;6173300;28;20226;-69
2022/04/21 17:15:02;;;;;;;1.70;1.60;;;12.90;79.80;;;;;;6176297;28;20226;-69
2022/04/21 17:18:12;;;;;;;2.58;1.80;;;12.90;80.60;;;;;;6176002;28;20234;-69
2022/04/21 17:21:18;;;;;;;1.67;1.48;;;12.90;81.40;;;;;;6177502;28;20237;-69
2022/04/21 17:24:25;;;;;;;2.45;1.30;;;12.80;81.00;;;;;;6177439;28;20597;-68
2022/04/21 17:27:30;;;;;;;2.15;1.60;;;12.80;81.60;;;;;;6177489;28;20246;-68
2022/04/21 17:30:36;;;;;;;3.50;1.60;;;12.80;81.60;;;;;;6177740;28;20232;-70
2022/04/21 17:33:42;;;;;;;2.28;1.52;;;12.70;82.10;;;;;;6176788;28;20241;-68
2022/04/21 17:36:47;;;;;;;1.48;1.38;;;12.70;82.60;;;;;;6175877;28;20260;-67
2022/04/21 17:39:56;;;;;;;2.58;1.40;;;12.70;83.20;;;;;;6159447;28;20230;-67
2022/04/21 17:43:02;;;;;;;1.80;1.70;;;12.70;83.90;;;;;;6176975;28;20256;-68